sensor_id;sensor_type;location;lat;lon;timestamp;P1;durP1;ratioP1;P2;durP2;ratioP2
52138;SDS011;38131;53.256;6.460;2022-10-14T00:00:41;65.53;;;13.57;;
52138;SDS011;38131;53.256;6.460;2022-10-14T00:03:10;60.67;;;13.68;;
52138;SDS011;38131;53.256;6.460;2022-10-14T00:05:39;42.30;;;13.38;;
52138;SDS011;38131;53.256;6.460;2022-10-14T00:11:30;16.42;;;13.13;;
52138;SDS011;38131;53.256;6.460;2022-10-14T00:14:07;30.88;;;12.60;;
52138;SDS011;38131;53.256;6.460;2022-10-14T00:16:39;23.70;;;13.75;;
52138;SDS011;38131;53.256;6.460;2022-10-14T00:19:12;25.88;;;13.20;;
52138;SDS011;38131;53.256;6.460;2022-10-14T00:21:41;44.38;;;15.32;;
52138;SDS011;38131;53.256;6.460;2022-10-14T00:24:11;45.90;;;13.20;;
52138;SDS011;38131;53.256;6.460;2022-10-14T00:26:41;19.30;;;12.68;;
52138;SDS011;38131;53.256;6.460;2022-10-14T00:29:12;53.90;;;13.40;;
52138;SDS011;38131;53.256;6.460;2022-10-14T00:31:39;27.33;;;13.32;;
52138;SDS011;38131;53.256;6.460;2022-10-14T00:34:17;36.28;;;13.52;;
52138;SDS011;38131;53.256;6.460;2022-10-14T00:36:44;67.78;;;13.40;;
52138;SDS011;38131;53.256;6.460;2022-10-14T00:39:10;69.40;;;11.60;;
52138;SDS011;38131;53.256;6.460;2022-10-14T00:41:44;30.17;;;11.32;;
52138;SDS011;38131;53.256;6.460;2022-10-14T00:46:52;38.80;;;10.85;;
52138;SDS011;38131;53.256;6.460;2022-10-14T00:52:13;42.28;;;10.32;;
52138;SDS011;38131;53.256;6.460;2022-10-14T00:54:47;13.85;;;10.90;;
52138;SDS011;38131;53.256;6.460;2022-10-14T00:57:17;43.15;;;10.57;;
52138;SDS011;38131;53.256;6.460;2022-10-14T01:00:06;47.67;;;11.02;;
52138;SDS011;38131;53.256;6.460;2022-10-14T01:02:52;33.88;;;12.40;;
52138;SDS011;38131;53.256;6.460;2022-10-14T01:05:31;46.28;;;12.98;;
52138;SDS011;38131;53.256;6.460;2022-10-14T01:08:10;38.38;;;12.95;;
52138;SDS011;38131;53.256;6.460;2022-10-14T01:13:33;30.45;;;13.07;;
52138;SDS011;38131;53.256;6.460;2022-10-14T01:16:16;57.30;;;12.93;;
52138;SDS011;38131;53.256;6.460;2022-10-14T01:21:47;46.67;;;11.80;;
52138;SDS011;38131;53.256;6.460;2022-10-14T01:25:02;52.13;;;11.98;;
52138;SDS011;38131;53.256;6.460;2022-10-14T01:28:02;39.97;;;12.15;;
52138;SDS011;38131;53.256;6.460;2022-10-14T01:31:18;27.85;;;11.77;;
52138;SDS011;38131;53.256;6.460;2022-10-14T01:34:33;64.75;;;12.02;;
52138;SDS011;38131;53.256;6.460;2022-10-14T01:37:16;21.73;;;10.93;;
52138;SDS011;38131;53.256;6.460;2022-10-14T01:42:42;17.63;;;10.45;;
52138;SDS011;38131;53.256;6.460;2022-10-14T01:47:43;34.38;;;11.32;;
52138;SDS011;38131;53.256;6.460;2022-10-14T01:50:16;37.45;;;10.68;;
52138;SDS011;38131;53.256;6.460;2022-10-14T01:52:52;42.58;;;11.32;;
52138;SDS011;38131;53.256;6.460;2022-10-14T01:55:42;13.38;;;9.27;;
52138;SDS011;38131;53.256;6.460;2022-10-14T01:58:13;15.63;;;10.32;;
52138;SDS011;38131;53.256;6.460;2022-10-14T02:00:56;55.75;;;10.77;;
52138;SDS011;38131;53.256;6.460;2022-10-14T02:03:43;69.03;;;10.60;;
52138;SDS011;38131;53.256;6.460;2022-10-14T02:06:29;21.42;;;9.85;;
52138;SDS011;38131;53.256;6.460;2022-10-14T02:09:34;16.60;;;9.80;;
52138;SDS011;38131;53.256;6.460;2022-10-14T02:16:31;25.88;;;10.57;;
52138;SDS011;38131;53.256;6.460;2022-10-14T02:19:07;30.95;;;9.25;;
52138;SDS011;38131;53.256;6.460;2022-10-14T02:21:45;64.25;;;8.88;;
52138;SDS011;38131;53.256;6.460;2022-10-14T02:24:50;9.23;;;8.30;;
52138;SDS011;38131;53.256;6.460;2022-10-14T02:27:20;11.10;;;8.43;;
52138;SDS011;38131;53.256;6.460;2022-10-14T02:32:50;26.60;;;9.35;;
52138;SDS011;38131;53.256;6.460;2022-10-14T02:35:18;11.75;;;9.02;;
52138;SDS011;38131;53.256;6.460;2022-10-14T02:37:49;64.43;;;8.93;;
52138;SDS011;38131;53.256;6.460;2022-10-14T02:40:39;62.58;;;10.48;;
52138;SDS011;38131;53.256;6.460;2022-10-14T02:43:09;15.32;;;7.68;;
52138;SDS011;38131;53.256;6.460;2022-10-14T02:45:48;10.68;;;8.77;;
52138;SDS011;38131;53.256;6.460;2022-10-14T02:48:23;43.75;;;8.38;;
52138;SDS011;38131;53.256;6.460;2022-10-14T02:50:49;12.40;;;7.82;;
52138;SDS011;38131;53.256;6.460;2022-10-14T02:53:16;24.05;;;7.78;;
52138;SDS011;38131;53.256;6.460;2022-10-14T02:55:45;62.50;;;8.38;;
52138;SDS011;38131;53.256;6.460;2022-10-14T02:58:17;48.50;;;8.15;;
52138;SDS011;38131;53.256;6.460;2022-10-14T03:00:52;19.35;;;6.38;;
52138;SDS011;38131;53.256;6.460;2022-10-14T03:03:28;28.50;;;5.75;;
52138;SDS011;38131;53.256;6.460;2022-10-14T03:06:00;68.50;;;6.85;;
52138;SDS011;38131;53.256;6.460;2022-10-14T03:08:28;12.75;;;5.70;;
52138;SDS011;38131;53.256;6.460;2022-10-14T03:10:55;6.17;;;5.57;;
52138;SDS011;38131;53.256;6.460;2022-10-14T03:16:09;18.05;;;6.18;;
52138;SDS011;38131;53.256;6.460;2022-10-14T03:24:45;27.80;;;6.63;;
52138;SDS011;38131;53.256;6.460;2022-10-14T03:33:27;16.88;;;5.75;;
52138;SDS011;38131;53.256;6.460;2022-10-14T03:35:55;46.33;;;6.10;;
52138;SDS011;38131;53.256;6.460;2022-10-14T03:38:22;17.95;;;5.68;;
52138;SDS011;38131;53.256;6.460;2022-10-14T03:40:48;18.23;;;5.22;;
52138;SDS011;38131;53.256;6.460;2022-10-14T03:43:16;38.72;;;6.40;;
52138;SDS011;38131;53.256;6.460;2022-10-14T03:45:43;16.83;;;5.82;;
52138;SDS011;38131;53.256;6.460;2022-10-14T03:48:14;5.53;;;4.93;;
52138;SDS011;38131;53.256;6.460;2022-10-14T03:50:45;13.10;;;5.65;;
52138;SDS011;38131;53.256;6.460;2022-10-14T03:53:25;5.43;;;4.93;;
52138;SDS011;38131;53.256;6.460;2022-10-14T03:56:36;5.28;;;4.78;;
52138;SDS011;38131;53.256;6.460;2022-10-14T03:59:27;5.70;;;5.20;;
52138;SDS011;38131;53.256;6.460;2022-10-14T04:02:01;6.60;;;4.50;;
52138;SDS011;38131;53.256;6.460;2022-10-14T04:04:28;8.77;;;5.00;;
52138;SDS011;38131;53.256;6.460;2022-10-14T04:06:59;20.42;;;6.13;;
52138;SDS011;38131;53.256;6.460;2022-10-14T04:09:29;9.55;;;6.30;;
52138;SDS011;38131;53.256;6.460;2022-10-14T04:12:04;6.40;;;5.80;;
52138;SDS011;38131;53.256;6.460;2022-10-14T04:14:35;19.50;;;6.60;;
52138;SDS011;38131;53.256;6.460;2022-10-14T04:17:15;52.00;;;6.68;;
52138;SDS011;38131;53.256;6.460;2022-10-14T04:19:43;25.83;;;6.57;;
52138;SDS011;38131;53.256;6.460;2022-10-14T04:28:56;19.13;;;6.68;;
52138;SDS011;38131;53.256;6.460;2022-10-14T04:31:28;19.67;;;6.55;;
52138;SDS011;38131;53.256;6.460;2022-10-14T04:34:28;7.57;;;6.83;;
52138;SDS011;38131;53.256;6.460;2022-10-14T04:37:01;11.90;;;7.35;;
52138;SDS011;38131;53.256;6.460;2022-10-14T04:49:35;62.25;;;9.75;;
52138;SDS011;38131;53.256;6.460;2022-10-14T04:54:36;18.45;;;9.50;;
52138;SDS011;38131;53.256;6.460;2022-10-14T05:00:20;14.10;;;7.85;;
52138;SDS011;38131;53.256;6.460;2022-10-14T05:03:40;15.32;;;7.25;;
52138;SDS011;38131;53.256;6.460;2022-10-14T05:16:55;23.92;;;8.18;;
52138;SDS011;38131;53.256;6.460;2022-10-14T05:20:14;54.78;;;8.90;;
52138;SDS011;38131;53.256;6.460;2022-10-14T05:33:32;16.55;;;6.57;;
52138;SDS011;38131;53.256;6.460;2022-10-14T05:39:47;8.60;;;5.72;;
52138;SDS011;38131;53.256;6.460;2022-10-14T05:45:17;10.55;;;6.97;;
52138;SDS011;38131;53.256;6.460;2022-10-14T05:47:44;9.63;;;6.93;;
52138;SDS011;38131;53.256;6.460;2022-10-14T05:50:16;24.98;;;6.60;;
52138;SDS011;38131;53.256;6.460;2022-10-14T05:52:44;10.50;;;6.40;;
52138;SDS011;38131;53.256;6.460;2022-10-14T05:55:14;11.35;;;5.90;;
52138;SDS011;38131;53.256;6.460;2022-10-14T05:57:42;11.10;;;6.18;;
52138;SDS011;38131;53.256;6.460;2022-10-14T06:00:08;9.80;;;6.43;;
52138;SDS011;38131;53.256;6.460;2022-10-14T06:03:16;9.98;;;7.05;;
52138;SDS011;38131;53.256;6.460;2022-10-14T06:05:49;13.60;;;8.10;;
52138;SDS011;38131;53.256;6.460;2022-10-14T06:08:17;14.13;;;7.80;;
52138;SDS011;38131;53.256;6.460;2022-10-14T06:10:52;12.90;;;7.80;;
52138;SDS011;38131;53.256;6.460;2022-10-14T06:13:30;14.20;;;8.32;;
52138;SDS011;38131;53.256;6.460;2022-10-14T06:16:17;16.08;;;9.13;;
52138;SDS011;38131;53.256;6.460;2022-10-14T06:19:22;19.17;;;9.57;;
52138;SDS011;38131;53.256;6.460;2022-10-14T06:21:53;18.00;;;9.57;;
52138;SDS011;38131;53.256;6.460;2022-10-14T06:24:53;18.30;;;9.95;;
52138;SDS011;38131;53.256;6.460;2022-10-14T06:30:17;16.98;;;10.25;;
52138;SDS011;38131;53.256;6.460;2022-10-14T06:33:15;34.00;;;16.30;;
52138;SDS011;38131;53.256;6.460;2022-10-14T06:36:18;45.30;;;14.93;;
52138;SDS011;38131;53.256;6.460;2022-10-14T07:27:00;31.65;;;14.77;;
52138;SDS011;38131;53.256;6.460;2022-10-14T07:33:54;44.63;;;17.98;;
52138;SDS011;38131;53.256;6.460;2022-10-14T07:36:54;47.10;;;18.38;;
52138;SDS011;38131;53.256;6.460;2022-10-14T07:43:19;54.78;;;18.08;;
52138;SDS011;38131;53.256;6.460;2022-10-14T07:49:27;48.08;;;18.83;;
52138;SDS011;38131;53.256;6.460;2022-10-14T10:15:46;48.35;;;24.17;;
52138;SDS011;38131;53.256;6.460;2022-10-14T10:26:16;46.10;;;25.35;;
52138;SDS011;38131;53.256;6.460;2022-10-14T10:49:52;39.25;;;21.63;;
52138;SDS011;38131;53.256;6.460;2022-10-14T11:09:55;33.88;;;18.42;;
